Voorhees, New Jersey
Current Conditions -  °F | °C
As of 4:54 AM on Saturday 01 Nov 2014 (Local Time) from KVAY Reporting Station
Moderate Rain Moderate Rain  
Wind Chill: 40°   Ceiling: 1600
Heat Index: 46°   Visibility: 4mi
Dew Point: 43°   Wind: 14mph
Humidity: 89%   Direction: 20°NNE
Pressure: 29.76"   Gusts: 20mph
Location:  39.85°N, 74.96°W
Report Text: KVAY 010854Z AUTO 02012G17KT 4SM RA BR OVC016 08/06 A2976 RMK AO2 SLP076 P0008 60012 T00780061 56006
Loading
Personal Weather Stations






























Interactive Weather Map
Tropical Storm Tracking
New forecast layout! Learn more

10-Day Weather Forecast

Advertisements
Track Severe Weather on mobile